Elkins Park, Pennsylvania
Current Conditions -  °F | °C
As of 12:54 AM on Wednesday 28 Jan 2015 (Local Time) from KPNE Reporting Station
Clear Clear  
Wind Chill:   Ceiling: Unl
Heat Index: 20°   Visibility: 10mi
Dew Point:   Wind: 13mph
Humidity: 52%   Direction: 320°NW
Pressure: 29.93"   Gusts: 18mph
Location:  40.08°N, 75.13°W
Report Text: KPNE 280554Z AUTO 32011G16KT 10SM CLR M07/M15 A2993 RMK AO2 SLP136 T10671150 11011 21067 51015 TSNO
Loading
Personal Weather Stations






























Interactive Weather Map New forecast layout! Learn more

10-Day Weather Forecast

Advertisements
Track Severe Weather on mobile